Porto de Moz, Brazil
Current Conditions -  °F | °C
As of 11:00 PM on Thursday 30 Oct 2014 (Local Time) from SBHT Reporting Station
Clear Clear  
Wind Chill: 75°   Ceiling: Unl
Heat Index: 75°   Visibility: 6mi
Dew Point: 75°   Wind: 0mph
Humidity: 100%   Direction: NA
Pressure: 29.83"   Gusts: NA
Location:  1.74°S, 52.24°W
Report Text: SBHT 310200Z 00000KT CAVOK 24/24 Q1010
Loading
Personal Weather Stations






























Interactive Weather Map
Tropical Storm Tracking
New forecast layout! Learn more

10-Day Weather Forecast

Advertisements
Track Severe Weather on mobile